sensor_id;sensor_type;location;lat;lon;timestamp;pressure;altitude;pressure_sealevel;temperature;humidity
32298;BME280;18782;48.984;8.548;2022-11-24T00:00:28;99240.00;;;9.58;82.81
32298;BME280;18782;48.984;8.548;2022-11-24T00:02:56;99246.91;;;9.60;82.73
32298;BME280;18782;48.984;8.548;2022-11-24T00:05:25;99247.81;;;9.62;82.55
32298;BME280;18782;48.984;8.548;2022-11-24T00:07:53;99256.56;;;9.74;81.33
32298;BME280;18782;48.984;8.548;2022-11-24T00:10:21;99259.13;;;9.74;81.52
32298;BME280;18782;48.984;8.548;2022-11-24T00:12:51;99251.44;;;9.75;81.36
32298;BME280;18782;48.984;8.548;2022-11-24T00:15:18;99260.06;;;9.77;81.22
32298;BME280;18782;48.984;8.548;2022-11-24T00:17:46;99266.03;;;9.76;81.23
32298;BME280;18782;48.984;8.548;2022-11-24T00:20:15;99265.53;;;9.97;79.93
32298;BME280;18782;48.984;8.548;2022-11-24T00:22:43;99266.34;;;9.96;80.41
32298;BME280;18782;48.984;8.548;2022-11-24T00:25:10;99271.44;;;9.93;80.76
32298;BME280;18782;48.984;8.548;2022-11-24T00:27:38;99266.34;;;9.96;80.64
32298;BME280;18782;48.984;8.548;2022-11-24T00:30:08;99272.31;;;9.95;80.72
32298;BME280;18782;48.984;8.548;2022-11-24T00:32:36;99275.81;;;9.97;80.62
32298;BME280;18782;48.984;8.548;2022-11-24T00:35:04;99284.50;;;10.05;80.37
32298;BME280;18782;48.984;8.548;2022-11-24T00:37:33;99286.19;;;10.03;80.26
32298;BME280;18782;48.984;8.548;2022-11-24T00:40:00;99282.75;;;10.04;80.07
32298;BME280;18782;48.984;8.548;2022-11-24T00:42:28;99282.69;;;10.01;80.12
32298;BME280;18782;48.984;8.548;2022-11-24T00:44:56;99282.00;;;10.11;79.48
32298;BME280;18782;48.984;8.548;2022-11-24T00:47:25;99291.50;;;10.15;79.37
32298;BME280;18782;48.984;8.548;2022-11-24T00:49:54;99291.59;;;10.22;78.78
32298;BME280;18782;48.984;8.548;2022-11-24T00:52:22;99288.19;;;10.23;78.94
32298;BME280;18782;48.984;8.548;2022-11-24T00:54:49;99293.31;;;10.23;78.73
32298;BME280;18782;48.984;8.548;2022-11-24T00:57:17;99291.72;;;10.28;79.19
32298;BME280;18782;48.984;8.548;2022-11-24T00:59:45;99298.66;;;10.32;78.64
32298;BME280;18782;48.984;8.548;2022-11-24T01:02:13;99302.06;;;10.31;78.06
32298;BME280;18782;48.984;8.548;2022-11-24T01:04:42;99305.50;;;10.30;78.34
32298;BME280;18782;48.984;8.548;2022-11-24T01:07:10;99310.63;;;10.30;78.16
32298;BME280;18782;48.984;8.548;2022-11-24T01:09:38;99307.22;;;10.31;78.22
32298;BME280;18782;48.984;8.548;2022-11-24T01:12:08;99315.88;;;10.36;77.78
32298;BME280;18782;48.984;8.548;2022-11-24T01:14:36;99321.06;;;10.39;77.75
32298;BME280;18782;48.984;8.548;2022-11-24T01:17:04;99321.00;;;10.36;77.68
32298;BME280;18782;48.984;8.548;2022-11-24T01:19:32;99331.31;;;10.36;78.23
32298;BME280;18782;48.984;8.548;2022-11-24T01:22:01;99341.59;;;10.37;78.15
32298;BME280;18782;48.984;8.548;2022-11-24T01:24:29;99343.28;;;10.34;77.51
32298;BME280;18782;48.984;8.548;2022-11-24T01:26:57;99332.25;;;10.42;77.37
32298;BME280;18782;48.984;8.548;2022-11-24T01:29:25;99344.22;;;10.39;77.69
32298;BME280;18782;48.984;8.548;2022-11-24T01:31:53;99333.94;;;10.39;76.92
32298;BME280;18782;48.984;8.548;2022-11-24T01:34:21;99342.59;;;10.44;77.00
32298;BME280;18782;48.984;8.548;2022-11-24T01:36:49;99347.69;;;10.42;77.41
32298;BME280;18782;48.984;8.548;2022-11-24T01:39:18;99344.25;;;10.40;77.62
32298;BME280;18782;48.984;8.548;2022-11-24T01:41:45;99340.81;;;10.40;77.08
32298;BME280;18782;48.984;8.548;2022-11-24T01:44:21;99346.81;;;10.42;76.86
32298;BME280;18782;48.984;8.548;2022-11-24T01:46:52;99347.63;;;10.38;77.26
32298;BME280;18782;48.984;8.548;2022-11-24T01:49:24;99346.78;;;10.39;77.10
32298;BME280;18782;48.984;8.548;2022-11-24T01:51:56;99351.97;;;10.42;77.20
32298;BME280;18782;48.984;8.548;2022-11-24T01:54:29;99351.97;;;10.42;77.11
32298;BME280;18782;48.984;8.548;2022-11-24T01:57:04;99355.41;;;10.41;76.84
32298;BME280;18782;48.984;8.548;2022-11-24T01:59:34;99348.53;;;10.41;77.68
32298;BME280;18782;48.984;8.548;2022-11-24T02:02:02;99352.75;;;10.38;77.30
32298;BME280;18782;48.984;8.548;2022-11-24T02:04:32;99358.75;;;10.37;77.28
32298;BME280;18782;48.984;8.548;2022-11-24T02:07:02;99353.56;;;10.34;77.71
32298;BME280;18782;48.984;8.548;2022-11-24T02:09:39;99358.84;;;10.43;77.37
32298;BME280;18782;48.984;8.548;2022-11-24T02:12:08;99352.88;;;10.44;76.63
32298;BME280;18782;48.984;8.548;2022-11-24T02:14:37;99356.25;;;10.41;77.44
32298;BME280;18782;48.984;8.548;2022-11-24T02:17:07;99359.72;;;10.43;77.30
32298;BME280;18782;48.984;8.548;2022-11-24T02:19:42;99354.53;;;10.42;77.80
32298;BME280;18782;48.984;8.548;2022-11-24T02:22:19;99360.53;;;10.41;78.45
32298;BME280;18782;48.984;8.548;2022-11-24T02:24:52;99357.03;;;10.36;78.18
32298;BME280;18782;48.984;8.548;2022-11-24T02:27:24;99345.03;;;10.38;78.89
32298;BME280;18782;48.984;8.548;2022-11-24T02:29:51;99345.03;;;10.38;78.14
32298;BME280;18782;48.984;8.548;2022-11-24T02:32:19;99345.03;;;10.36;78.45
32298;BME280;18782;48.984;8.548;2022-11-24T02:34:47;99358.72;;;10.34;77.86
32298;BME280;18782;48.984;8.548;2022-11-24T02:37:15;99363.88;;;10.34;78.08
32298;BME280;18782;48.984;8.548;2022-11-24T02:39:43;99358.81;;;10.40;78.24
32298;BME280;18782;48.984;8.548;2022-11-24T02:42:12;99363.03;;;10.36;77.79
32298;BME280;18782;48.984;8.548;2022-11-24T02:44:44;99362.31;;;10.45;77.15
32298;BME280;18782;48.984;8.548;2022-11-24T02:47:13;99356.25;;;10.40;76.83
32298;BME280;18782;48.984;8.548;2022-11-24T02:49:41;99344.16;;;10.34;77.19
32298;BME280;18782;48.984;8.548;2022-11-24T02:52:09;99356.97;;;10.33;77.50
32298;BME280;18782;48.984;8.548;2022-11-24T02:54:37;99357.81;;;10.30;76.90
32298;BME280;18782;48.984;8.548;2022-11-24T02:57:04;99360.28;;;10.26;77.74
32298;BME280;18782;48.984;8.548;2022-11-24T02:59:32;99354.28;;;10.24;77.51
32298;BME280;18782;48.984;8.548;2022-11-24T03:02:01;99362.00;;;10.24;77.28
32298;BME280;18782;48.984;8.548;2022-11-24T03:04:29;99367.16;;;10.27;76.18
32298;BME280;18782;48.984;8.548;2022-11-24T03:06:58;99367.16;;;10.27;76.80
32298;BME280;18782;48.984;8.548;2022-11-24T03:09:26;99358.66;;;10.31;76.67
32298;BME280;18782;48.984;8.548;2022-11-24T03:11:53;99358.66;;;10.31;76.86
32298;BME280;18782;48.984;8.548;2022-11-24T03:14:21;99362.09;;;10.30;76.14
32298;BME280;18782;48.984;8.548;2022-11-24T03:16:49;99373.31;;;10.35;75.97
32298;BME280;18782;48.984;8.548;2022-11-24T03:19:18;99362.16;;;10.34;76.48
32298;BME280;18782;48.984;8.548;2022-11-24T03:21:46;99376.66;;;10.29;76.73
32298;BME280;18782;48.984;8.548;2022-11-24T03:24:13;99374.19;;;10.37;76.23
32298;BME280;18782;48.984;8.548;2022-11-24T03:26:41;99372.53;;;10.39;76.25
32298;BME280;18782;48.984;8.548;2022-11-24T03:29:09;99377.59;;;10.34;76.42
32298;BME280;18782;48.984;8.548;2022-11-24T03:31:39;99375.91;;;10.38;75.96
32298;BME280;18782;48.984;8.548;2022-11-24T03:34:07;99380.97;;;10.32;76.42
32298;BME280;18782;48.984;8.548;2022-11-24T03:36:36;99376.66;;;10.29;76.81
32298;BME280;18782;48.984;8.548;2022-11-24T03:39:04;99378.31;;;10.27;76.55
32298;BME280;18782;48.984;8.548;2022-11-24T03:41:32;99382.69;;;10.31;77.01
32298;BME280;18782;48.984;8.548;2022-11-24T03:44:00;99384.31;;;10.28;76.70
32298;BME280;18782;48.984;8.548;2022-11-24T03:46:28;99377.50;;;10.30;76.64
32298;BME280;18782;48.984;8.548;2022-11-24T03:48:56;99379.25;;;10.32;76.13
32298;BME280;18782;48.984;8.548;2022-11-24T03:51:23;99369.81;;;10.31;76.02
32298;BME280;18782;48.984;8.548;2022-11-24T03:53:52;99374.13;;;10.32;76.70
32298;BME280;18782;48.984;8.548;2022-11-24T03:56:20;99379.31;;;10.34;76.29
32298;BME280;18782;48.984;8.548;2022-11-24T03:58:48;99368.88;;;10.28;75.75
32298;BME280;18782;48.984;8.548;2022-11-24T04:01:16;99386.09;;;10.29;76.73
32298;BME280;18782;48.984;8.548;2022-11-24T04:03:44;99386.91;;;10.28;76.20
32298;BME280;18782;48.984;8.548;2022-11-24T04:06:12;99392.09;;;10.29;75.78
32298;BME280;18782;48.984;8.548;2022-11-24T04:08:42;99392.94;;;10.30;75.27
32298;BME280;18782;48.984;8.548;2022-11-24T04:11:11;99392.16;;;10.34;74.99
32298;BME280;18782;48.984;8.548;2022-11-24T04:13:59;99375.91;;;10.38;75.72
32298;BME280;18782;48.984;8.548;2022-11-24T04:16:25;99382.75;;;10.36;74.79
32298;BME280;18782;48.984;8.548;2022-11-24T04:18:53;99388.75;;;10.36;74.81
32298;BME280;18782;48.984;8.548;2022-11-24T04:21:21;99394.78;;;10.37;75.57
32298;BME280;18782;48.984;8.548;2022-11-24T04:23:48;99384.53;;;10.40;74.68
32298;BME280;18782;48.984;8.548;2022-11-24T04:26:17;99387.97;;;10.39;74.35
32298;BME280;18782;48.984;8.548;2022-11-24T04:28:45;99396.63;;;10.44;74.76
32298;BME280;18782;48.984;8.548;2022-11-24T04:31:13;99394.84;;;10.40;75.43
32298;BME280;18782;48.984;8.548;2022-11-24T04:33:41;99400.84;;;10.42;74.54
32298;BME280;18782;48.984;8.548;2022-11-24T04:36:08;99394.84;;;10.40;75.34
32298;BME280;18782;48.984;8.548;2022-11-24T04:38:36;99394.84;;;10.40;75.09
32298;BME280;18782;48.984;8.548;2022-11-24T04:41:25;99405.91;;;10.36;75.27
32298;BME280;18782;48.984;8.548;2022-11-24T04:43:52;99415.19;;;10.28;76.13
32298;BME280;18782;48.984;8.548;2022-11-24T04:46:20;99403.16;;;10.24;76.56
32298;BME280;18782;48.984;8.548;2022-11-24T04:48:48;99402.19;;;10.22;76.67
32298;BME280;18782;48.984;8.548;2022-11-24T04:51:15;99412.38;;;10.15;76.95
32298;BME280;18782;48.984;8.548;2022-11-24T04:53:43;99405.50;;;10.13;76.56
32298;BME280;18782;48.984;8.548;2022-11-24T04:56:11;99401.16;;;10.10;77.00
32298;BME280;18782;48.984;8.548;2022-11-24T04:58:40;99408.03;;;10.11;76.09
32298;BME280;18782;48.984;8.548;2022-11-24T05:01:07;99402.00;;;10.09;76.52
32298;BME280;18782;48.984;8.548;2022-11-24T05:03:35;99409.63;;;10.06;77.37
32298;BME280;18782;48.984;8.548;2022-11-24T05:06:03;99418.13;;;10.02;78.12
32298;BME280;18782;48.984;8.548;2022-11-24T05:08:31;99420.66;;;9.99;77.60
32298;BME280;18782;48.984;8.548;2022-11-24T05:11:02;99425.81;;;9.99;77.42
32298;BME280;18782;48.984;8.548;2022-11-24T05:13:30;99427.56;;;10.02;77.46
32298;BME280;18782;48.984;8.548;2022-11-24T05:15:59;99440.47;;;10.03;77.17
32298;BME280;18782;48.984;8.548;2022-11-24T05:18:27;99438.78;;;10.05;77.67
32298;BME280;18782;48.984;8.548;2022-11-24T05:20:56;99428.63;;;10.13;77.06
32298;BME280;18782;48.984;8.548;2022-11-24T05:23:25;99445.72;;;10.09;77.57
32298;BME280;18782;48.984;8.548;2022-11-24T05:25:53;99445.75;;;10.12;77.33
32298;BME280;18782;48.984;8.548;2022-11-24T05:28:20;99439.75;;;10.12;78.43
32298;BME280;18782;48.984;8.548;2022-11-24T05:30:48;99455.19;;;10.12;77.74
32298;BME280;18782;48.984;8.548;2022-11-24T05:33:17;99446.59;;;10.11;78.52
32298;BME280;18782;48.984;8.548;2022-11-24T05:35:46;99451.72;;;10.10;79.51
32298;BME280;18782;48.984;8.548;2022-11-24T05:38:15;99452.50;;;10.07;78.34
32298;BME280;18782;48.984;8.548;2022-11-24T05:40:43;99447.38;;;10.07;79.21
32298;BME280;18782;48.984;8.548;2022-11-24T05:43:11;99473.97;;;10.08;79.64
32298;BME280;18782;48.984;8.548;2022-11-24T05:45:39;99460.28;;;10.09;80.27
32298;BME280;18782;48.984;8.548;2022-11-24T05:48:09;99449.16;;;10.11;80.74
32298;BME280;18782;48.984;8.548;2022-11-24T05:50:38;99462.78;;;10.06;82.13
32298;BME280;18782;48.984;8.548;2022-11-24T05:53:08;99458.47;;;10.03;81.95
32298;BME280;18782;48.984;8.548;2022-11-24T05:55:36;99458.41;;;10.02;84.42
32298;BME280;18782;48.984;8.548;2022-11-24T05:58:06;99467.72;;;9.95;83.82
32298;BME280;18782;48.984;8.548;2022-11-24T06:00:35;99475.44;;;9.97;83.07
32298;BME280;18782;48.984;8.548;2022-11-24T06:03:03;99479.72;;;9.96;83.18
32298;BME280;18782;48.984;8.548;2022-11-24T06:05:31;99489.22;;;9.97;83.91
32298;BME280;18782;48.984;8.548;2022-11-24T06:08:00;99488.28;;;9.95;84.08
32298;BME280;18782;48.984;8.548;2022-11-24T06:10:28;99486.63;;;9.97;86.99
32298;BME280;18782;48.984;8.548;2022-11-24T06:12:56;99494.34;;;9.97;87.79
32298;BME280;18782;48.984;8.548;2022-11-24T06:15:23;99507.13;;;9.94;89.12
32298;BME280;18782;48.984;8.548;2022-11-24T06:17:52;99512.19;;;9.91;89.10
32298;BME280;18782;48.984;8.548;2022-11-24T06:20:21;99532.53;;;9.79;86.58
32298;BME280;18782;48.984;8.548;2022-11-24T06:22:56;99524.91;;;9.83;86.42
32298;BME280;18782;48.984;8.548;2022-11-24T06:25:25;99528.16;;;9.75;86.80
32298;BME280;18782;48.984;8.548;2022-11-24T06:27:53;99527.25;;;9.73;87.10
32298;BME280;18782;48.984;8.548;2022-11-24T06:30:21;99534.06;;;9.71;86.78
32298;BME280;18782;48.984;8.548;2022-11-24T06:32:53;99537.09;;;9.51;88.22
32298;BME280;18782;48.984;8.548;2022-11-24T06:35:21;99555.06;;;9.51;87.96
32298;BME280;18782;48.984;8.548;2022-11-24T06:37:48;99548.97;;;9.46;88.19
32298;BME280;18782;48.984;8.548;2022-11-24T06:40:16;99553.28;;;9.49;89.66
32298;BME280;18782;48.984;8.548;2022-11-24T06:42:49;99562.47;;;9.39;89.83
32298;BME280;18782;48.984;8.548;2022-11-24T06:45:18;99577.84;;;9.36;91.36
32298;BME280;18782;48.984;8.548;2022-11-24T06:47:45;99569.06;;;9.28;92.09
32298;BME280;18782;48.984;8.548;2022-11-24T06:50:13;99575.03;;;9.27;92.29
32298;BME280;18782;48.984;8.548;2022-11-24T06:52:41;99574.06;;;9.22;93.96
32298;BME280;18782;48.984;8.548;2022-11-24T06:55:09;99578.25;;;9.18;93.47
32298;BME280;18782;48.984;8.548;2022-11-24T06:57:36;99578.91;;;9.09;94.22
32298;BME280;18782;48.984;8.548;2022-11-24T07:00:08;99578.22;;;9.17;95.45
32298;BME280;18782;48.984;8.548;2022-11-24T07:02:36;99612.31;;;9.11;94.07
32298;BME280;18782;48.984;8.548;2022-11-24T07:05:11;99589.25;;;9.12;94.16
32298;BME280;18782;48.984;8.548;2022-11-24T07:07:39;99581.47;;;9.09;94.27
32298;BME280;18782;48.984;8.548;2022-11-24T07:10:07;99601.28;;;9.13;93.49
32298;BME280;18782;48.984;8.548;2022-11-24T07:12:34;99602.94;;;9.13;92.95
32298;BME280;18782;48.984;8.548;2022-11-24T07:15:03;99586.47;;;9.03;91.38
32298;BME280;18782;48.984;8.548;2022-11-24T07:17:34;99596.69;;;9.02;91.54
32298;BME280;18782;48.984;8.548;2022-11-24T07:20:02;99602.63;;;8.99;91.45
32298;BME280;18782;48.984;8.548;2022-11-24T07:22:30;99597.56;;;9.02;90.59
32298;BME280;18782;48.984;8.548;2022-11-24T07:24:58;99600.81;;;8.95;91.27
32298;BME280;18782;48.984;8.548;2022-11-24T07:27:26;99590.53;;;8.95;91.66
32298;BME280;18782;48.984;8.548;2022-11-24T07:29:54;99599.81;;;8.90;90.06
32298;BME280;18782;48.984;8.548;2022-11-24T07:32:22;99586.84;;;8.84;91.17
32298;BME280;18782;48.984;8.548;2022-11-24T07:34:51;99598.00;;;8.86;90.55
32298;BME280;18782;48.984;8.548;2022-11-24T07:37:18;99601.53;;;8.89;90.02
32298;BME280;18782;48.984;8.548;2022-11-24T07:39:46;99612.66;;;8.90;89.57
32298;BME280;18782;48.984;8.548;2022-11-24T07:42:13;99621.09;;;8.86;88.77
32298;BME280;18782;48.984;8.548;2022-11-24T07:44:41;99626.38;;;8.92;89.10
32298;BME280;18782;48.984;8.548;2022-11-24T07:47:09;99623.78;;;8.91;88.79
32298;BME280;18782;48.984;8.548;2022-11-24T07:49:36;99629.63;;;8.85;86.80
32298;BME280;18782;48.984;8.548;2022-11-24T07:52:06;99628.22;;;8.96;87.36
32298;BME280;18782;48.984;8.548;2022-11-24T07:54:34;99641.88;;;8.95;84.95
32298;BME280;18782;48.984;8.548;2022-11-24T07:57:02;99641.88;;;8.95;84.51
32298;BME280;18782;48.984;8.548;2022-11-24T07:59:29;99656.59;;;9.02;82.54
32298;BME280;18782;48.984;8.548;2022-11-24T08:01:58;99645.53;;;9.03;83.17
32298;BME280;18782;48.984;8.548;2022-11-24T08:04:26;99657.31;;;8.97;83.15
32298;BME280;18782;48.984;8.548;2022-11-24T08:06:54;99646.22;;;8.98;81.52
32298;BME280;18782;48.984;8.548;2022-11-24T08:09:23;99647.25;;;9.04;82.51
32298;BME280;18782;48.984;8.548;2022-11-24T08:11:50;99650.66;;;9.03;81.07
32298;BME280;18782;48.984;8.548;2022-11-24T08:14:18;99660.97;;;9.05;81.25
32298;BME280;18782;48.984;8.548;2022-11-24T08:16:45;99665.16;;;9.03;80.78
32298;BME280;18782;48.984;8.548;2022-11-24T08:19:13;99663.53;;;9.05;80.36
32298;BME280;18782;48.984;8.548;2022-11-24T08:21:41;99673.75;;;9.03;80.09
32298;BME280;18782;48.984;8.548;2022-11-24T08:24:09;99680.75;;;9.09;80.66
32298;BME280;18782;48.984;8.548;2022-11-24T08:26:40;99691.22;;;9.17;80.34
32298;BME280;18782;48.984;8.548;2022-11-24T08:29:08;99691.81;;;9.06;80.79
32298;BME280;18782;48.984;8.548;2022-11-24T08:31:37;99688.41;;;9.07;82.06
32298;BME280;18782;48.984;8.548;2022-11-24T08:34:05;99693.81;;;9.18;82.19
32298;BME280;18782;48.984;8.548;2022-11-24T08:36:33;99697.19;;;9.15;81.12
32298;BME280;18782;48.984;8.548;2022-11-24T08:39:01;99693.94;;;9.23;81.13
32298;BME280;18782;48.984;8.548;2022-11-24T08:41:29;99690.47;;;9.21;81.04
32298;BME280;18782;48.984;8.548;2022-11-24T08:43:58;99683.81;;;9.29;80.74
32298;BME280;18782;48.984;8.548;2022-11-24T08:46:26;99682.19;;;9.32;81.29
32298;BME280;18782;48.984;8.548;2022-11-24T08:48:54;99691.47;;;9.27;81.53
32298;BME280;18782;48.984;8.548;2022-11-24T08:51:22;99690.63;;;9.27;82.09
32298;BME280;18782;48.984;8.548;2022-11-24T08:53:53;99695.19;;;9.38;81.08
32298;BME280;18782;48.984;8.548;2022-11-24T08:56:21;99704.59;;;9.38;81.32
32298;BME280;18782;48.984;8.548;2022-11-24T08:58:48;99694.88;;;9.26;81.05
32298;BME280;18782;48.984;8.548;2022-11-24T09:01:17;99710.47;;;9.34;81.11
32298;BME280;18782;48.984;8.548;2022-11-24T09:03:47;99709.84;;;9.43;79.47
32298;BME280;18782;48.984;8.548;2022-11-24T09:06:17;99713.38;;;9.46;80.02
32298;BME280;18782;48.984;8.548;2022-11-24T09:08:45;99716.06;;;9.51;79.39
32298;BME280;18782;48.984;8.548;2022-11-24T09:11:14;99729.09;;;9.58;80.60
32298;BME280;18782;48.984;8.548;2022-11-24T09:13:42;99727.28;;;9.54;79.87
32298;BME280;18782;48.984;8.548;2022-11-24T09:16:12;99734.22;;;9.58;79.95
32298;BME280;18782;48.984;8.548;2022-11-24T09:18:41;99733.41;;;9.59;79.45
32298;BME280;18782;48.984;8.548;2022-11-24T09:21:11;99750.59;;;9.62;80.47
32298;BME280;18782;48.984;8.548;2022-11-24T09:23:40;99742.47;;;9.45;81.00
32298;BME280;18782;48.984;8.548;2022-11-24T09:26:09;99740.66;;;9.41;81.12
32298;BME280;18782;48.984;8.548;2022-11-24T09:28:37;99745.06;;;9.47;81.28
32298;BME280;18782;48.984;8.548;2022-11-24T09:31:07;99747.63;;;9.45;82.37
32298;BME280;18782;48.984;8.548;2022-11-24T09:33:36;99765.00;;;9.55;82.96
32298;BME280;18782;48.984;8.548;2022-11-24T09:36:06;99766.34;;;9.41;82.97
32298;BME280;18782;48.984;8.548;2022-11-24T09:38:34;99763.09;;;9.48;84.48
32298;BME280;18782;48.984;8.548;2022-11-24T09:41:18;99768.34;;;9.53;85.50
32298;BME280;18782;48.984;8.548;2022-11-24T09:43:55;99778.34;;;9.42;84.92
32298;BME280;18782;48.984;8.548;2022-11-24T09:46:30;99790.47;;;9.46;84.80
32298;BME280;18782;48.984;8.548;2022-11-24T09:49:00;99792.09;;;9.44;85.46
32298;BME280;18782;48.984;8.548;2022-11-24T09:51:30;99805.06;;;9.49;86.55
32298;BME280;18782;48.984;8.548;2022-11-24T09:54:02;99796.00;;;9.61;86.57
32298;BME280;18782;48.984;8.548;2022-11-24T09:56:34;99796.00;;;9.61;86.68
32298;BME280;18782;48.984;8.548;2022-11-24T09:59:06;99801.13;;;9.61;86.90
32298;BME280;18782;48.984;8.548;2022-11-24T10:01:40;99801.91;;;9.59;87.37
32298;BME280;18782;48.984;8.548;2022-11-24T10:04:13;99802.13;;;9.66;88.17
32298;BME280;18782;48.984;8.548;2022-11-24T10:06:48;99792.75;;;9.68;88.09
32298;BME280;18782;48.984;8.548;2022-11-24T10:09:44;99784.94;;;9.65;87.21
32298;BME280;18782;48.984;8.548;2022-11-24T10:12:29;99796.22;;;9.71;87.31
32298;BME280;18782;48.984;8.548;2022-11-24T10:15:16;99797.78;;;9.65;86.60
32298;BME280;18782;48.984;8.548;2022-11-24T10:18:13;99792.66;;;9.65;86.97
32298;BME280;18782;48.984;8.548;2022-11-24T10:20:51;99799.72;;;9.73;86.71
32298;BME280;18782;48.984;8.548;2022-11-24T10:23:35;99805.00;;;9.79;87.53
32298;BME280;18782;48.984;8.548;2022-11-24T10:26:15;99795.25;;;10.00;87.29
32298;BME280;18782;48.984;8.548;2022-11-24T10:28:50;99809.63;;;10.27;86.10
32298;BME280;18782;48.984;8.548;2022-11-24T10:31:24;99805.31;;;10.63;84.42
32298;BME280;18782;48.984;8.548;2022-11-24T10:33:56;99805.78;;;10.45;84.36
32298;BME280;18782;48.984;8.548;2022-11-24T10:36:31;99808.03;;;10.32;84.57
32298;BME280;18782;48.984;8.548;2022-11-24T10:39:19;99815.88;;;10.38;84.36
32298;BME280;18782;48.984;8.548;2022-11-24T10:41:53;99806.78;;;10.52;83.42
32298;BME280;18782;48.984;8.548;2022-11-24T10:44:23;99800.25;;;10.68;82.38
32298;BME280;18782;48.984;8.548;2022-11-24T10:46:51;99787.69;;;10.82;86.31
32298;BME280;18782;48.984;8.548;2022-11-24T10:49:22;99799.25;;;10.60;82.10
32298;BME280;18782;48.984;8.548;2022-11-24T10:51:58;99804.75;;;10.78;81.65
32298;BME280;18782;48.984;8.548;2022-11-24T10:54:32;99818.69;;;10.86;81.16
32298;BME280;18782;48.984;8.548;2022-11-24T10:57:01;99799.31;;;11.05;81.53
32298;BME280;18782;48.984;8.548;2022-11-24T10:59:35;99804.47;;;11.05;79.97
32298;BME280;18782;48.984;8.548;2022-11-24T11:02:31;99819.84;;;11.44;80.50
32298;BME280;18782;48.984;8.548;2022-11-24T11:05:25;99812.72;;;11.80;76.24
32298;BME280;18782;48.984;8.548;2022-11-24T11:08:15;99814.63;;;11.87;75.88
32298;BME280;18782;48.984;8.548;2022-11-24T11:10:47;99813.53;;;11.75;76.89
32298;BME280;18782;48.984;8.548;2022-11-24T11:13:24;99811.00;;;11.79;76.59
32298;BME280;18782;48.984;8.548;2022-11-24T11:15:53;99815.41;;;11.84;75.46
32298;BME280;18782;48.984;8.548;2022-11-24T11:18:25;99816.13;;;11.75;74.94
32298;BME280;18782;48.984;8.548;2022-11-24T11:20:58;99810.78;;;11.66;76.73
32298;BME280;18782;48.984;8.548;2022-11-24T11:23:31;99808.34;;;11.74;76.14
32298;BME280;18782;48.984;8.548;2022-11-24T11:26:30;99810.88;;;11.72;75.54
32298;BME280;18782;48.984;8.548;2022-11-24T11:29:00;99806.59;;;11.73;75.67
32298;BME280;18782;48.984;8.548;2022-11-24T11:31:56;99808.38;;;11.75;75.91
32298;BME280;18782;48.984;8.548;2022-11-24T11:34:45;99801.31;;;11.65;76.36
32298;BME280;18782;48.984;8.548;2022-11-24T11:37:13;99803.94;;;11.68;75.42
32298;BME280;18782;48.984;8.548;2022-11-24T11:39:45;99810.97;;;11.75;75.07
32298;BME280;18782;48.984;8.548;2022-11-24T11:42:23;99809.63;;;11.96;74.37
32298;BME280;18782;48.984;8.548;2022-11-24T11:45:14;99799.34;;;11.99;74.04
32298;BME280;18782;48.984;8.548;2022-11-24T11:47:45;99816.41;;;11.91;72.63
32298;BME280;18782;48.984;8.548;2022-11-24T11:50:15;99819.53;;;11.74;74.03
32298;BME280;18782;48.984;8.548;2022-11-24T11:52:59;99815.00;;;11.61;74.50
32298;BME280;18782;48.984;8.548;2022-11-24T11:55:42;99814.03;;;11.56;75.29
32298;BME280;18782;48.984;8.548;2022-11-24T12:01:28;99815.94;;;11.66;73.20
32298;BME280;18782;48.984;8.548;2022-11-24T12:04:08;99832.34;;;11.70;73.03
32298;BME280;18782;48.984;8.548;2022-11-24T12:07:09;99812.31;;;11.55;74.07
32298;BME280;18782;48.984;8.548;2022-11-24T12:09:48;99822.78;;;11.64;74.02
32298;BME280;18782;48.984;8.548;2022-11-24T12:12:56;99824.94;;;11.43;74.02
32298;BME280;18782;48.984;8.548;2022-11-24T12:15:32;99827.63;;;11.47;73.80
32298;BME280;18782;48.984;8.548;2022-11-24T12:18:10;99824.34;;;11.56;74.16
32298;BME280;18782;48.984;8.548;2022-11-24T12:21:07;99838.19;;;11.61;73.61
32298;BME280;18782;48.984;8.548;2022-11-24T12:23:47;99839.53;;;11.41;74.42
32298;BME280;18782;48.984;8.548;2022-11-24T12:26:25;99838.31;;;11.67;73.49
32298;BME280;18782;48.984;8.548;2022-11-24T12:29:07;99832.31;;;12.17;72.53
32298;BME280;18782;48.984;8.548;2022-11-24T12:31:46;99832.53;;;12.31;72.05
32298;BME280;18782;48.984;8.548;2022-11-24T12:34:42;99842.22;;;12.44;70.84
32298;BME280;18782;48.984;8.548;2022-11-24T12:37:24;99837.28;;;12.59;69.56
32298;BME280;18782;48.984;8.548;2022-11-24T12:40:02;99835.06;;;12.88;70.91
32298;BME280;18782;48.984;8.548;2022-11-24T12:42:37;99832.22;;;13.34;65.56
32298;BME280;18782;48.984;8.548;2022-11-24T12:45:13;99838.91;;;13.95;62.66
32298;BME280;18782;48.984;8.548;2022-11-24T12:47:57;99839.72;;;13.93;62.09
32298;BME280;18782;48.984;8.548;2022-11-24T12:50:33;99839.56;;;13.77;60.97
32298;BME280;18782;48.984;8.548;2022-11-24T12:53:04;99831.91;;;13.87;61.33
32298;BME280;18782;48.984;8.548;2022-11-24T12:55:36;99832.91;;;14.01;60.80
32298;BME280;18782;48.984;8.548;2022-11-24T12:58:09;99831.06;;;13.88;60.09
32298;BME280;18782;48.984;8.548;2022-11-24T13:00:47;99832.88;;;13.98;61.28
32298;BME280;18782;48.984;8.548;2022-11-24T13:03:31;99843.03;;;13.78;61.64
32298;BME280;18782;48.984;8.548;2022-11-24T13:06:09;99841.94;;;13.53;62.58
32298;BME280;18782;48.984;8.548;2022-11-24T13:08:39;99848.78;;;13.48;62.68
32298;BME280;18782;48.984;8.548;2022-11-24T13:11:29;99857.16;;;13.27;61.98
32298;BME280;18782;48.984;8.548;2022-11-24T13:14:04;99837.09;;;13.11;63.31
32298;BME280;18782;48.984;8.548;2022-11-24T13:16:33;99832.09;;;13.21;63.66
32298;BME280;18782;48.984;8.548;2022-11-24T13:19:21;99832.91;;;14.04;61.65
32298;BME280;18782;48.984;8.548;2022-11-24T13:21:59;99830.84;;;14.68;59.38
32298;BME280;18782;48.984;8.548;2022-11-24T13:24:28;99833.34;;;14.56;59.49
32298;BME280;18782;48.984;8.548;2022-11-24T13:33:43;99842.25;;;13.83;61.90
32298;BME280;18782;48.984;8.548;2022-11-24T13:36:33;99857.06;;;14.01;61.65